Time;durP1;ratioP1;P1;durP2;ratioP2;P2;SDS_P1;SDS_P2;PMS_P1;PMS_P2;Temp;Humidity;BMP_temperature;BMP_pressure;BME280_temperature;BME280_humidity;BME280_pressure;Samples;Min_cycle;Max_cycle;Signal;HPM_P1;HPM_P2
2021/10/31 00:02:13;;;;;;;7.85;2.25;;;12.20;85.10;;;;;;5077703;28;20475;-77
2021/10/31 00:04:39;;;;;;;8.40;1.92;;;12.20;85.00;;;;;;5077934;28;20098;-77
2021/10/31 00:07:06;;;;;;;7.22;2.35;;;12.20;85.20;;;;;;5077770;28;20102;-76
2021/10/31 00:09:31;;;;;;;7.13;2.33;;;12.20;84.90;;;;;;5077793;28;20479;-76
2021/10/31 00:11:59;;;;;;;8.57;3.35;;;12.20;85.00;;;;;;5076044;28;20439;-76
2021/10/31 00:14:24;;;;;;;8.85;2.30;;;12.20;84.60;;;;;;5077896;28;20034;-77
2021/10/31 00:16:51;;;;;;;7.88;2.10;;;12.20;84.80;;;;;;5076250;28;20096;-77
2021/10/31 00:19:17;;;;;;;6.70;2.15;;;12.20;85.00;;;;;;5077914;28;20056;-77
2021/10/31 00:21:42;;;;;;;6.32;2.10;;;12.20;85.50;;;;;;5077100;28;20023;-77
2021/10/31 00:24:08;;;;;;;7.65;2.10;;;12.10;85.00;;;;;;5077459;28;20028;-76
2021/10/31 00:26:34;;;;;;;10.40;2.30;;;12.10;85.20;;;;;;5077233;28;20020;-76
2021/10/31 00:29:00;;;;;;;5.35;1.75;;;12.10;85.00;;;;;;5077612;28;20103;-76
2021/10/31 00:31:26;;;;;;;7.85;1.75;;;12.00;84.60;;;;;;5077506;28;20035;-76
2021/10/31 00:33:51;;;;;;;6.47;1.80;;;12.10;84.90;;;;;;5077285;28;20028;-77
2021/10/31 00:36:17;;;;;;;9.20;1.80;;;12.00;85.50;;;;;;5077259;28;20045;-76
2021/10/31 00:38:43;;;;;;;7.82;1.70;;;12.00;86.50;;;;;;5076128;28;20024;-76
2021/10/31 00:41:09;;;;;;;6.57;1.80;;;12.00;86.20;;;;;;5077084;28;20066;-76
2021/10/31 00:43:35;;;;;;;8.65;1.75;;;12.00;86.40;;;;;;5077439;28;20379;-76
2021/10/31 00:46:01;;;;;;;11.05;1.88;;;12.10;86.60;;;;;;5077296;28;20024;-76
2021/10/31 00:48:27;;;;;;;5.18;1.50;;;12.10;86.50;;;;;;5077497;28;20032;-76
2021/10/31 00:50:53;;;;;;;6.30;1.67;;;12.10;86.60;;;;;;5075939;28;20036;-76
2021/10/31 00:53:19;;;;;;;7.85;1.73;;;12.20;86.50;;;;;;5077322;28;20065;-76
2021/10/31 00:55:45;;;;;;;6.93;1.75;;;12.20;86.80;;;;;;5076767;28;20082;-77
2021/10/31 00:58:12;;;;;;;7.05;1.80;;;12.20;86.70;;;;;;5077383;28;20025;-77
2021/10/31 01:00:38;;;;;;;6.10;1.95;;;12.20;86.80;;;;;;5076083;28;20020;-76
2021/10/31 01:03:04;;;;;;;5.07;1.83;;;12.30;87.00;;;;;;5077383;28;20021;-76
2021/10/31 01:05:39;;;;;;;9.75;2.78;;;12.30;87.30;;;;;;5077000;28;20023;-76
2021/10/31 01:08:33;;;;;;;8.05;2.38;;;12.30;86.80;;;;;;5077240;28;20117;-77
2021/10/31 01:11:02;;;;;;;7.38;1.73;;;12.30;86.50;;;;;;5076984;28;20021;-76
2021/10/31 01:14:05;;;;;;;5.25;1.40;;;12.40;86.60;;;;;;5077038;28;20031;-77
2021/10/31 01:16:37;;;;;;;10.88;1.70;;;12.30;87.00;;;;;;5076895;28;20064;-77
2021/10/31 01:19:15;;;;;;;9.57;1.90;;;12.40;86.80;;;;;;5077362;28;20016;-76
2021/10/31 01:21:47;;;;;;;5.82;1.70;;;12.40;86.70;;;;;;5077188;28;20024;-77
2021/10/31 01:24:37;;;;;;;6.55;1.77;;;12.40;87.10;;;;;;5076918;28;20514;-77
2021/10/31 01:27:54;;;;;;;7.65;1.63;;;12.40;87.00;;;;;;5076812;28;20050;-76
2021/10/31 01:30:36;;;;;;;7.20;1.60;;;12.40;86.60;;;;;;5064857;28;20483;-77
2021/10/31 01:33:41;;;;;;;5.40;1.67;;;12.40;86.50;;;;;;5076910;28;20032;-77
2021/10/31 01:36:19;;;;;;;6.95;1.50;;;12.40;86.40;;;;;;5058428;28;20052;-76
2021/10/31 01:39:17;;;;;;;4.95;1.95;;;12.40;86.40;;;;;;5078140;28;20056;-76
2021/10/31 01:42:03;;;;;;;3.85;1.70;;;12.40;86.50;;;;;;5080519;28;20016;-76
2021/10/31 01:44:39;;;;;;;6.63;2.28;;;12.50;86.50;;;;;;5080789;28;20493;-77
2021/10/31 01:47:34;;;;;;;9.57;1.75;;;12.40;87.10;;;;;;5080376;28;20031;-76
2021/10/31 01:50:10;;;;;;;8.55;2.00;;;12.50;87.40;;;;;;5080615;28;20063;-77
2021/10/31 01:53:14;;;;;;;6.88;2.17;;;12.50;87.30;;;;;;5080437;28;20024;-76
2021/10/31 01:55:48;;;;;;;9.32;1.60;;;12.50;86.80;;;;;;5057766;28;20025;-77
2021/10/31 01:58:18;;;;;;;7.30;1.70;;;12.50;87.30;;;;;;5076887;28;20051;-76
2021/10/31 02:00:48;;;;;;;7.72;1.40;;;12.60;88.00;;;;;;5080403;28;20017;-76
2021/10/31 02:03:18;;;;;;;6.57;1.63;;;12.60;87.70;;;;;;5080093;28;20502;-76
2021/10/31 02:05:44;;;;;;;8.73;1.77;;;12.60;87.40;;;;;;5067070;28;20028;-76
2021/10/31 02:08:11;;;;;;;8.90;1.85;;;12.60;88.00;;;;;;5078749;28;20031;-75
2021/10/31 02:10:39;;;;;;;9.23;2.10;;;12.70;87.90;;;;;;5079795;28;20111;-76
2021/10/31 02:13:08;;;;;;;17.25;2.10;;;12.70;88.10;;;;;;5080075;28;20024;-76
2021/10/31 02:15:36;;;;;;;7.68;1.80;;;12.70;88.80;;;;;;5080039;28;20047;-76
2021/10/31 02:18:03;;;;;;;7.72;2.17;;;12.70;89.20;;;;;;5079838;28;20453;-77
2021/10/31 02:20:30;;;;;;;7.82;1.83;;;12.70;88.60;;;;;;5080201;28;20080;-76
2021/10/31 02:23:06;;;;;;;8.82;1.65;;;12.70;88.30;;;;;;5079795;28;20407;-76
2021/10/31 02:25:33;;;;;;;10.65;1.67;;;12.70;88.60;;;;;;5079613;28;20024;-76
2021/10/31 02:27:59;;;;;;;9.02;2.00;;;12.70;88.50;;;;;;5079627;28;20503;-76
2021/10/31 02:30:25;;;;;;;8.02;2.00;;;12.70;88.60;;;;;;5080014;28;20065;-77
2021/10/31 02:32:51;;;;;;;9.45;1.92;;;12.80;88.60;;;;;;5078169;28;20028;-76
2021/10/31 02:35:18;;;;;;;8.80;1.92;;;12.70;88.50;;;;;;5079512;28;20044;-76
2021/10/31 02:37:45;;;;;;;10.43;1.83;;;12.80;88.30;;;;;;5079480;28;20030;-76
2021/10/31 02:40:13;;;;;;;3.33;1.27;;;12.70;88.10;;;;;;5079334;28;20039;-76
2021/10/31 02:42:40;;;;;;;8.75;1.50;;;12.80;89.30;;;;;;5078048;28;20050;-76
2021/10/31 02:45:07;;;;;;;7.28;1.45;;;12.80;88.40;;;;;;5077739;28;20027;-76
2021/10/31 02:47:42;;;;;;;9.38;1.85;;;12.80;88.50;;;;;;5079378;28;20085;-76
2021/10/31 02:50:14;;;;;;;8.23;2.20;;;12.80;88.70;;;;;;5079947;28;20070;-77
2021/10/31 02:53:06;;;;;;;13.30;2.30;;;12.90;90.00;;;;;;5078159;28;20513;-77
2021/10/31 02:55:51;;;;;;;6.55;1.70;;;12.90;89.60;;;;;;5077483;28;20029;-77
2021/10/31 02:58:51;;;;;;;7.80;1.55;;;12.90;89.70;;;;;;5079459;28;20441;-77
2021/10/31 03:01:18;;;;;;;11.95;2.30;;;12.90;90.00;;;;;;5079173;28;20024;-78
2021/10/31 03:03:46;;;;;;;11.23;2.15;;;12.90;90.00;;;;;;5078980;28;20024;-78
2021/10/31 03:06:12;;;;;;;12.60;2.33;;;13.00;90.00;;;;;;5079315;28;20025;-77
2021/10/31 03:08:39;;;;;;;10.48;1.58;;;13.00;90.30;;;;;;5078849;28;20032;-77
2021/10/31 03:11:08;;;;;;;7.72;1.90;;;13.00;90.20;;;;;;5079025;28;20024;-76
2021/10/31 03:13:36;;;;;;;11.48;1.90;;;13.00;90.10;;;;;;5078893;28;20032;-77
2021/10/31 03:16:02;;;;;;;8.40;1.63;;;13.00;90.50;;;;;;5078798;28;20462;-76
2021/10/31 03:18:28;;;;;;;9.40;1.55;;;13.10;90.50;;;;;;5078961;28;20042;-76
2021/10/31 03:20:54;;;;;;;5.88;1.35;;;13.10;90.60;;;;;;5078758;28;20542;-76
2021/10/31 03:23:20;;;;;;;7.00;1.65;;;13.10;90.50;;;;;;5078557;28;20021;-77
2021/10/31 03:25:46;;;;;;;6.55;3.28;;;13.10;90.50;;;;;;5078327;28;20032;-77
2021/10/31 03:28:13;;;;;;;6.95;1.58;;;13.10;90.50;;;;;;5077192;28;20024;-76
2021/10/31 03:30:39;;;;;;;9.43;1.90;;;13.10;90.80;;;;;;5078912;28;20122;-76
2021/10/31 03:33:05;;;;;;;8.85;2.05;;;13.20;90.90;;;;;;5078288;28;20021;-76
2021/10/31 03:35:31;;;;;;;7.00;1.65;;;13.20;91.00;;;;;;5078417;28;20044;-76
2021/10/31 03:37:57;;;;;;;8.20;1.95;;;13.20;91.30;;;;;;5078217;28;20418;-77
2021/10/31 03:40:23;;;;;;;9.90;2.15;;;13.20;91.10;;;;;;5078086;28;20494;-76
2021/10/31 03:42:49;;;;;;;10.10;2.20;;;13.30;91.30;;;;;;5077048;28;21156;-77
2021/10/31 03:45:15;;;;;;;10.15;1.90;;;13.30;91.40;;;;;;5078372;28;20087;-76
2021/10/31 03:47:48;;;;;;;10.80;1.88;;;13.30;91.30;;;;;;5078414;28;20021;-76
2021/10/31 03:50:21;;;;;;;7.70;1.73;;;13.30;91.10;;;;;;5078321;28;20021;-76
2021/10/31 03:52:48;;;;;;;9.48;2.20;;;13.30;91.10;;;;;;5078155;28;20031;-77
2021/10/31 03:55:15;;;;;;;9.35;2.00;;;13.40;91.30;;;;;;5077765;28;20082;-77
2021/10/31 03:57:41;;;;;;;9.32;2.38;;;13.40;91.30;;;;;;5077345;28;20020;-75
2021/10/31 04:00:10;;;;;;;16.42;2.47;;;13.40;91.00;;;;;;5077976;28;20082;-75
2021/10/31 04:02:37;;;;;;;10.02;2.00;;;13.40;91.20;;;;;;5077908;28;20012;-75
2021/10/31 04:05:05;;;;;;;11.25;2.55;;;13.50;91.40;;;;;;5076498;28;20496;-75
2021/10/31 04:07:31;;;;;;;13.00;2.55;;;13.50;91.10;;;;;;5078173;28;20020;-76
2021/10/31 04:09:57;;;;;;;11.40;2.28;;;13.50;90.90;;;;;;5077491;28;20036;-76
2021/10/31 04:12:23;;;;;;;13.15;2.60;;;13.50;91.00;;;;;;5077784;28;20027;-76
2021/10/31 04:14:49;;;;;;;11.05;2.08;;;13.60;91.20;;;;;;5077708;28;20103;-76
2021/10/31 04:17:15;;;;;;;13.43;2.55;;;13.60;91.20;;;;;;5077695;28;20117;-76
2021/10/31 04:19:41;;;;;;;10.23;2.10;;;13.60;91.40;;;;;;5077655;28;20066;-75
2021/10/31 04:22:07;;;;;;;14.60;2.17;;;13.70;91.30;;;;;;5077869;28;20119;-77
2021/10/31 04:24:33;;;;;;;8.60;2.05;;;13.70;91.50;;;;;;5077540;28;20037;-76
2021/10/31 04:27:01;;;;;;;9.73;2.42;;;13.70;91.20;;;;;;5077468;28;20025;-77
2021/10/31 04:29:27;;;;;;;14.85;2.63;;;13.70;91.30;;;;;;5077448;28;20016;-76
2021/10/31 04:31:53;;;;;;;11.70;2.67;;;13.80;91.10;;;;;;5077575;28;20029;-76
2021/10/31 04:34:18;;;;;;;9.27;2.00;;;13.80;91.50;;;;;;5077337;28;20028;-77
2021/10/31 04:36:44;;;;;;;11.82;2.40;;;13.80;91.50;;;;;;5077255;28;20148;-76
2021/10/31 04:39:11;;;;;;;9.73;1.98;;;13.80;91.30;;;;;;5076011;28;20028;-78
2021/10/31 04:41:38;;;;;;;13.32;1.90;;;13.90;91.30;;;;;;5077266;28;20021;-76
2021/10/31 04:44:05;;;;;;;11.60;2.33;;;13.90;91.30;;;;;;5076052;28;20016;-77
2021/10/31 04:46:31;;;;;;;10.10;1.88;;;13.90;91.60;;;;;;5077470;28;20104;-77
2021/10/31 04:48:57;;;;;;;11.35;2.22;;;13.90;91.40;;;;;;5077379;28;20032;-76
2021/10/31 04:51:23;;;;;;;12.15;2.20;;;13.90;91.20;;;;;;5077454;28;20033;-76
2021/10/31 04:53:48;;;;;;;9.07;2.03;;;13.90;90.90;;;;;;5077142;28;20062;-76
2021/10/31 04:56:15;;;;;;;8.40;1.80;;;13.90;90.90;;;;;;5076969;28;20020;-76
2021/10/31 04:58:41;;;;;;;10.45;1.80;;;14.00;90.80;;;;;;5077562;28;20025;-77
2021/10/31 05:01:06;;;;;;;10.65;2.80;;;14.00;91.20;;;;;;5076063;28;20107;-76
2021/10/31 05:03:32;;;;;;;6.90;1.80;;;14.00;91.00;;;;;;5077175;28;20017;-76
2021/10/31 05:05:59;;;;;;;10.93;2.63;;;14.00;91.10;;;;;;5077354;28;20028;-76
2021/10/31 05:08:26;;;;;;;8.65;2.70;;;14.00;91.30;;;;;;5078525;28;20029;-75
2021/10/31 05:10:53;;;;;;;12.07;2.50;;;14.10;91.10;;;;;;5081044;28;20036;-74
2021/10/31 05:13:19;;;;;;;10.18;1.92;;;14.10;91.20;;;;;;5081042;28;20111;-75
2021/10/31 05:15:45;;;;;;;14.73;2.15;;;14.10;90.90;;;;;;5081461;28;20056;-75
2021/10/31 05:18:11;;;;;;;11.68;2.42;;;14.10;90.80;;;;;;5080976;28;20111;-75
2021/10/31 05:20:37;;;;;;;12.00;1.80;;;14.10;90.90;;;;;;5081342;28;20028;-75
2021/10/31 05:23:03;;;;;;;13.25;2.20;;;14.10;90.90;;;;;;5080875;28;20044;-76
2021/10/31 05:25:29;;;;;;;13.95;2.30;;;14.10;90.70;;;;;;5080874;28;20060;-75
2021/10/31 05:27:55;;;;;;;8.80;2.08;;;14.10;90.90;;;;;;5080904;28;20051;-76
2021/10/31 05:30:20;;;;;;;8.18;3.13;;;14.10;91.20;;;;;;5080938;28;20025;-76
2021/10/31 05:32:48;;;;;;;13.88;2.42;;;14.20;91.20;;;;;;5080623;28;20020;-78
2021/10/31 05:35:13;;;;;;;14.15;2.55;;;14.20;91.30;;;;;;5080914;28;20041;-77
2021/10/31 05:37:46;;;;;;;11.18;1.75;;;14.20;91.20;;;;;;5080468;28;20044;-77
2021/10/31 05:40:16;;;;;;;10.85;2.80;;;14.20;90.70;;;;;;5080596;28;20356;-75
2021/10/31 05:42:42;;;;;;;11.10;2.13;;;14.20;90.80;;;;;;5080440;28;20020;-76
2021/10/31 05:45:09;;;;;;;12.00;2.53;;;14.20;91.20;;;;;;5080649;28;20028;-76
2021/10/31 05:47:40;;;;;;;11.20;2.00;;;14.20;91.10;;;;;;5079115;28;20023;-76
2021/10/31 05:50:08;;;;;;;11.80;2.67;;;14.20;91.20;;;;;;5080646;28;20029;-77
2021/10/31 05:52:34;;;;;;;20.85;2.85;;;14.20;91.20;;;;;;5080317;28;20070;-76
2021/10/31 05:55:01;;;;;;;16.77;2.67;;;14.20;91.30;;;;;;5080068;28;20025;-76
2021/10/31 05:57:27;;;;;;;13.95;2.42;;;14.20;91.20;;;;;;5080179;28;20052;-76
2021/10/31 05:59:54;;;;;;;9.45;2.55;;;14.20;91.00;;;;;;5080319;28;20028;-76
2021/10/31 06:02:19;;;;;;;10.32;2.30;;;14.20;91.00;;;;;;5080020;28;20028;-77
2021/10/31 06:04:46;;;;;;;10.57;2.38;;;14.20;90.80;;;;;;5080199;28;20081;-77
2021/10/31 06:07:12;;;;;;;10.60;2.20;;;14.20;90.80;;;;;;5080225;28;20048;-75
2021/10/31 06:09:38;;;;;;;20.55;2.45;;;14.20;91.20;;;;;;5079814;28;20062;-75
2021/10/31 06:12:05;;;;;;;9.02;1.80;;;14.20;91.20;;;;;;5079977;28;20036;-75
2021/10/31 06:14:32;;;;;;;15.60;3.15;;;14.20;91.10;;;;;;5080276;28;20483;-75
2021/10/31 06:16:58;;;;;;;9.60;2.05;;;14.20;91.30;;;;;;5080158;28;20043;-75
2021/10/31 06:19:24;;;;;;;10.40;2.28;;;14.10;91.30;;;;;;5079538;28;20024;-75
2021/10/31 06:21:50;;;;;;;11.52;2.17;;;14.10;91.80;;;;;;5079388;28;20027;-74
2021/10/31 06:24:16;;;;;;;15.50;2.92;;;14.00;91.90;;;;;;5079718;28;20067;-74
2021/10/31 06:26:42;;;;;;;9.00;3.22;;;14.00;92.30;;;;;;5079481;28;20080;-74
2021/10/31 06:29:07;;;;;;;9.50;2.38;;;13.90;92.50;;;;;;5079785;28;20109;-74
2021/10/31 06:31:33;;;;;;;16.48;2.85;;;13.90;92.50;;;;;;5079914;28;20521;-74
2021/10/31 06:33:59;;;;;;;16.65;2.53;;;13.80;92.60;;;;;;5079496;28;20039;-75
2021/10/31 06:36:25;;;;;;;12.65;2.28;;;13.80;92.60;;;;;;5079439;28;20056;-74
2021/10/31 06:38:52;;;;;;;17.83;2.65;;;13.80;92.80;;;;;;5078172;28;20024;-75
2021/10/31 06:41:17;;;;;;;14.55;2.80;;;13.80;93.00;;;;;;5077882;28;20044;-76
2021/10/31 06:43:43;;;;;;;10.15;2.80;;;13.70;92.90;;;;;;5079555;28;20376;-75
2021/10/31 06:46:09;;;;;;;12.10;2.08;;;13.70;93.20;;;;;;5079351;28;20042;-74
2021/10/31 06:48:35;;;;;;;14.00;2.90;;;13.70;93.40;;;;;;5079543;28;20036;-75
2021/10/31 06:51:00;;;;;;;12.52;2.60;;;13.70;93.40;;;;;;5079277;28;20027;-74
2021/10/31 06:53:26;;;;;;;10.82;2.63;;;13.70;93.40;;;;;;5079377;28;20028;-74
2021/10/31 06:55:52;;;;;;;17.40;3.40;;;13.70;93.40;;;;;;5078731;28;20021;-74
2021/10/31 06:58:18;;;;;;;14.00;2.72;;;13.70;93.70;;;;;;5079238;28;20395;-75
2021/10/31 07:00:44;;;;;;;18.58;3.67;;;13.70;93.90;;;;;;5079318;28;20021;-75
2021/10/31 07:03:09;;;;;;;15.18;3.30;;;13.70;93.80;;;;;;5078985;28;20096;-74
2021/10/31 07:05:35;;;;;;;13.05;2.83;;;13.70;93.70;;;;;;5079032;28;20483;-74
2021/10/31 07:08:01;;;;;;;15.18;4.28;;;13.70;93.50;;;;;;5077721;28;20057;-74
2021/10/31 07:10:27;;;;;;;17.55;3.05;;;13.70;93.60;;;;;;5078647;28;20031;-73
2021/10/31 07:12:53;;;;;;;16.90;2.70;;;13.70;93.50;;;;;;5079348;28;20103;-74
2021/10/31 07:15:19;;;;;;;16.13;3.15;;;13.70;93.80;;;;;;5078777;28;20025;-74
2021/10/31 07:17:45;;;;;;;18.50;3.72;;;13.70;93.80;;;;;;5078863;28;20086;-74
2021/10/31 07:20:13;;;;;;;12.90;2.75;;;13.70;93.80;;;;;;5078740;28;20017;-73
2021/10/31 07:22:40;;;;;;;12.15;2.60;;;13.80;94.10;;;;;;5079030;28;20028;-74
2021/10/31 07:25:07;;;;;;;23.65;3.58;;;13.70;94.00;;;;;;5077121;28;20031;-73
2021/10/31 07:27:33;;;;;;;14.88;2.92;;;13.70;94.10;;;;;;5078605;28;20476;-73
2021/10/31 07:29:59;;;;;;;13.95;3.00;;;13.80;94.20;;;;;;5078663;28;20031;-73
2021/10/31 07:32:25;;;;;;;14.02;2.60;;;13.80;94.10;;;;;;5078496;28;20024;-72
2021/10/31 07:34:51;;;;;;;14.75;2.78;;;13.80;94.30;;;;;;5065257;28;20021;-73
2021/10/31 07:37:17;;;;;;;12.90;3.22;;;13.80;94.30;;;;;;5078441;28;20071;-73
2021/10/31 07:39:44;;;;;;;23.17;3.72;;;13.80;94.50;;;;;;5077946;28;20044;-73
2021/10/31 07:42:11;;;;;;;17.58;4.25;;;13.80;94.50;;;;;;5078256;28;20024;-72
2021/10/31 07:44:37;;;;;;;17.35;3.53;;;13.80;94.60;;;;;;5078368;28;20494;-73
2021/10/31 07:47:03;;;;;;;15.02;3.15;;;13.80;94.50;;;;;;5078339;28;20029;-73
2021/10/31 07:49:29;;;;;;;17.92;3.63;;;13.80;94.80;;;;;;5078309;28;20028;-72
2021/10/31 07:51:55;;;;;;;11.63;2.28;;;13.80;94.80;;;;;;5078092;28;20050;-74
2021/10/31 07:54:25;;;;;;;10.07;2.83;;;13.80;94.90;;;;;;5078156;28;20463;-74
2021/10/31 07:56:56;;;;;;;12.57;3.13;;;13.80;94.80;;;;;;5077799;28;20036;-73
2021/10/31 07:59:22;;;;;;;18.35;3.33;;;13.80;95.10;;;;;;5078158;28;20013;-74
2021/10/31 08:01:48;;;;;;;14.93;3.60;;;13.80;95.30;;;;;;5076595;28;20479;-72
2021/10/31 08:04:14;;;;;;;9.88;3.15;;;13.80;95.60;;;;;;5065708;28;20065;-72
2021/10/31 08:06:40;;;;;;;11.65;3.83;;;13.80;95.60;;;;;;5076540;28;20388;-72
2021/10/31 08:09:05;;;;;;;14.52;2.63;;;13.80;95.50;;;;;;5076536;28;20029;-72
2021/10/31 08:11:31;;;;;;;12.18;3.75;;;13.80;95.70;;;;;;5076417;28;20028;-72
2021/10/31 08:13:57;;;;;;;15.70;3.28;;;13.80;95.80;;;;;;5076444;28;20036;-72
2021/10/31 08:16:24;;;;;;;10.85;3.03;;;13.80;95.90;;;;;;5078015;28;20054;-72
2021/10/31 08:18:51;;;;;;;10.07;2.55;;;13.80;95.90;;;;;;5077830;28;20009;-72
2021/10/31 08:21:17;;;;;;;11.07;3.03;;;13.90;96.20;;;;;;5077607;28;20107;-72
2021/10/31 08:23:43;;;;;;;9.88;3.15;;;13.80;96.30;;;;;;5077773;28;20040;-71
2021/10/31 08:26:09;;;;;;;8.38;1.90;;;13.90;97.10;;;;;;5077345;28;20024;-72
2021/10/31 08:28:39;;;;;;;5.00;1.20;;;13.90;97.20;;;;;;5077900;28;20080;-72
2021/10/31 08:31:05;;;;;;;5.35;1.17;;;13.90;96.70;;;;;;5077519;28;20060;-72
2021/10/31 08:33:33;;;;;;;3.78;1.20;;;13.80;96.10;;;;;;5076169;28;20032;-72
2021/10/31 08:36:00;;;;;;;2.42;0.80;;;13.80;95.80;;;;;;5077264;28;20080;-71
2021/10/31 08:38:26;;;;;;;3.05;0.80;;;13.70;95.40;;;;;;5076383;28;20150;-72
2021/10/31 08:40:53;;;;;;;2.97;1.27;;;13.70;95.10;;;;;;5077077;28;20134;-72
2021/10/31 08:43:20;;;;;;;4.78;1.67;;;13.60;94.80;;;;;;5077001;28;20123;-72
2021/10/31 08:45:46;;;;;;;4.55;1.30;;;13.60;94.70;;;;;;5077415;28;20480;-72
2021/10/31 08:48:13;;;;;;;7.88;3.33;;;13.60;94.80;;;;;;5077477;28;20056;-72
2021/10/31 08:50:39;;;;;;;5.82;1.50;;;13.50;94.50;;;;;;5075950;28;20024;-72
2021/10/31 08:53:07;;;;;;;9.40;3.28;;;13.50;94.80;;;;;;5077291;28;20031;-72
2021/10/31 08:55:35;;;;;;;16.17;5.95;;;13.60;94.70;;;;;;5076754;28;20483;-72
2021/10/31 08:58:04;;;;;;;17.58;6.50;;;13.60;94.60;;;;;;5076054;28;20029;-72
2021/10/31 09:00:30;;;;;;;51.72;25.10;;;13.50;94.30;;;;;;5075859;28;20025;-72
2021/10/31 09:02:56;;;;;;;18.27;8.68;;;13.50;94.00;;;;;;5077310;28;20024;-72
2021/10/31 09:05:22;;;;;;;20.80;8.40;;;13.50;93.90;;;;;;5077184;28;20507;-72
2021/10/31 09:07:47;;;;;;;33.85;14.13;;;13.50;93.90;;;;;;5077457;28;20483;-73
2021/10/31 09:10:13;;;;;;;28.17;11.95;;;13.50;93.80;;;;;;5076713;28;20109;-72
2021/10/31 09:12:40;;;;;;;47.70;21.58;;;13.50;93.90;;;;;;5077327;28;20025;-72
2021/10/31 09:15:05;;;;;;;12.52;4.30;;;13.50;94.00;;;;;;5077001;28;20013;-72
2021/10/31 09:17:31;;;;;;;11.32;4.47;;;13.50;94.50;;;;;;5077531;28;20545;-72
2021/10/31 09:19:57;;;;;;;7.10;2.22;;;13.50;94.30;;;;;;5076982;28;20074;-72
2021/10/31 09:22:23;;;;;;;5.97;2.78;;;13.50;94.20;;;;;;5077218;28;20021;-72
2021/10/31 09:24:50;;;;;;;9.77;5.07;;;13.50;94.20;;;;;;5076587;28;20048;-72
2021/10/31 09:27:19;;;;;;;7.30;1.75;;;13.50;94.10;;;;;;5075790;28;20119;-72
2021/10/31 09:29:45;;;;;;;5.82;2.05;;;13.50;94.10;;;;;;5076916;28;20032;-72
2021/10/31 09:32:11;;;;;;;8.38;2.30;;;13.50;94.00;;;;;;5076816;28;20471;-70
2021/10/31 09:34:37;;;;;;;4.25;1.50;;;13.50;94.00;;;;;;5076893;28;20029;-73
2021/10/31 09:37:04;;;;;;;3.53;1.30;;;13.50;93.80;;;;;;5076955;28;20039;-72
2021/10/31 09:39:30;;;;;;;5.47;1.38;;;13.50;93.90;;;;;;5076480;28;20021;-72
2021/10/31 09:41:56;;;;;;;11.73;5.70;;;13.50;94.00;;;;;;5077056;28;20024;-72
2021/10/31 09:44:32;;;;;;;6.38;1.77;;;13.40;93.70;;;;;;5076760;28;20051;-72
2021/10/31 09:46:58;;;;;;;4.18;1.10;;;13.50;93.90;;;;;;5077096;28;20021;-72
2021/10/31 09:49:24;;;;;;;4.25;1.50;;;13.50;94.00;;;;;;5076721;28;20066;-72
2021/10/31 09:51:51;;;;;;;7.40;2.30;;;13.50;96.80;;;;;;5075508;28;20506;-72
2021/10/31 09:54:18;;;;;;;5.35;1.70;;;13.50;99.20;;;;;;5076533;28;20441;-72
2021/10/31 09:56:44;;;;;;;6.78;1.95;;;13.60;99.90;;;;;;5079571;28;20036;-72
2021/10/31 09:59:12;;;;;;;4.65;1.10;;;13.60;99.90;;;;;;5080236;28;20016;-72
2021/10/31 10:04:30;;;;;;;5.25;1.17;;;13.80;99.90;;;;;;5070087;28;20029;-72
2021/10/31 10:06:58;;;;;;;3.17;1.10;;;14.10;99.90;;;;;;5080348;28;20032;-72
2021/10/31 10:09:26;;;;;;;4.05;1.20;;;14.40;99.90;;;;;;5079972;28;20476;-72
2021/10/31 10:11:52;;;;;;;5.82;1.30;;;14.60;99.90;;;;;;5080014;28;20029;-72
2021/10/31 10:14:24;;;;;;;7.70;1.75;;;14.90;99.90;;;;;;5080099;28;20047;-72
2021/10/31 10:17:02;;;;;;;4.93;1.03;;;15.30;99.90;;;;;;5078631;28;20032;-72
2021/10/31 10:20:00;;;;;;;6.03;1.20;;;15.60;99.90;;;;;;5080206;28;20021;-72
2021/10/31 10:22:27;;;;;;;9.23;2.00;;;15.80;99.90;;;;;;5079444;28;20039;-72
2021/10/31 10:24:54;;;;;;;7.82;2.15;;;15.90;99.90;;;;;;5079490;28;20021;-72
2021/10/31 10:27:24;;;;;;;11.52;2.08;;;15.90;99.90;;;;;;5079813;28;20032;-72
2021/10/31 10:29:51;;;;;;;11.55;2.40;;;15.90;99.90;;;;;;5079868;28;20046;-72
2021/10/31 10:32:21;;;;;;;13.73;1.95;;;15.90;99.90;;;;;;5079634;28;20495;-72
2021/10/31 10:34:56;;;;;;;9.70;2.20;;;15.80;99.90;;;;;;5079665;28;20020;-72
2021/10/31 10:37:26;;;;;;;15.18;2.55;;;16.00;99.90;;;;;;5079719;28;20021;-72
2021/10/31 10:39:56;;;;;;;13.07;1.95;;;16.50;99.90;;;;;;5079444;28;20154;-72
2021/10/31 10:42:36;;;;;;;9.75;1.98;;;16.70;99.90;;;;;;5079445;28;20028;-72
2021/10/31 10:45:04;;;;;;;11.90;2.47;;;17.10;99.50;;;;;;5078571;28;20025;-72
2021/10/31 10:47:32;;;;;;;14.15;3.83;;;17.40;98.50;;;;;;5079360;28;20025;-72
2021/10/31 10:50:00;;;;;;;15.00;3.15;;;17.40;98.40;;;;;;5079535;28;20027;-72
2021/10/31 10:52:34;;;;;;;12.50;2.72;;;17.30;99.40;;;;;;5079257;28;20114;-72
2021/10/31 10:55:22;;;;;;;14.10;2.30;;;17.20;99.50;;;;;;5079077;28;20103;-71
2021/10/31 10:58:02;;;;;;;14.57;2.35;;;17.20;99.00;;;;;;5079456;28;20036;-72
2021/10/31 11:00:39;;;;;;;14.20;2.75;;;17.20;98.20;;;;;;5077931;28;20013;-72
2021/10/31 11:03:13;;;;;;;11.00;2.53;;;17.10;98.20;;;;;;5079168;28;20044;-72
2021/10/31 11:06:00;;;;;;;16.08;3.92;;;16.90;98.90;;;;;;5078653;28;20044;-72
2021/10/31 11:08:26;;;;;;;11.77;3.10;;;17.00;99.90;;;;;;5079034;28;20025;-72
2021/10/31 11:10:57;;;;;;;13.25;2.83;;;17.50;99.90;;;;;;5078730;28;20021;-72
2021/10/31 11:13:25;;;;;;;10.50;2.20;;;17.80;99.60;;;;;;5078929;28;20024;-72
2021/10/31 11:15:53;;;;;;;20.45;3.55;;;18.10;99.80;;;;;;5079067;28;20029;-72
2021/10/31 11:18:19;;;;;;;14.77;3.33;;;18.60;96.70;;;;;;5078768;28;20025;-72
2021/10/31 11:20:46;;;;;;;21.17;3.53;;;19.00;98.70;;;;;;5078918;28;20560;-72
2021/10/31 11:23:16;;;;;;;14.25;3.50;;;19.40;97.60;;;;;;5078660;28;20438;-72
2021/10/31 11:25:44;;;;;;;19.27;2.92;;;19.70;97.00;;;;;;5078561;28;20541;-73
2021/10/31 11:28:12;;;;;;;19.83;4.28;;;20.00;90.50;;;;;;5077224;28;20111;-73
2021/10/31 11:30:40;;;;;;;15.35;3.92;;;20.10;94.80;;;;;;5078542;28;20025;-73
2021/10/31 11:33:08;;;;;;;17.25;2.60;;;20.20;94.80;;;;;;5078376;28;20024;-73
2021/10/31 11:35:34;;;;;;;13.25;3.35;;;20.30;93.90;;;;;;5078384;28;20041;-73
2021/10/31 11:38:08;;;;;;;15.02;3.80;;;20.30;95.40;;;;;;5078529;28;20044;-73
2021/10/31 11:40:46;;;;;;;15.90;3.58;;;20.20;93.60;;;;;;5076708;28;20171;-73
2021/10/31 11:43:16;;;;;;;18.23;3.80;;;20.30;95.20;;;;;;5078465;28;20047;-73
2021/10/31 11:45:45;;;;;;;21.30;3.08;;;20.10;94.50;;;;;;5078335;28;20017;-73
2021/10/31 11:48:19;;;;;;;15.20;2.15;;;20.00;95.80;;;;;;5078396;28;20066;-73
2021/10/31 11:51:03;;;;;;;22.33;3.90;;;19.80;94.40;;;;;;5078176;28;20523;-74
2021/10/31 11:53:42;;;;;;;17.67;4.15;;;19.80;96.30;;;;;;5078121;28;20032;-74
2021/10/31 11:56:26;;;;;;;18.70;3.20;;;19.80;96.10;;;;;;5076583;28;20020;-74
2021/10/31 11:59:01;;;;;;;24.30;3.88;;;19.80;98.50;;;;;;5078186;28;20036;-74
2021/10/31 12:01:32;;;;;;;16.90;3.42;;;19.80;97.80;;;;;;5078023;28;20025;-73
2021/10/31 12:03:58;;;;;;;14.68;3.00;;;19.90;97.80;;;;;;5077862;28;20379;-74
2021/10/31 12:06:27;;;;;;;18.08;3.30;;;20.00;96.30;;;;;;5078137;28;20031;-74
2021/10/31 12:08:56;;;;;;;19.02;3.03;;;20.10;95.80;;;;;;5077712;28;20036;-74
2021/10/31 12:11:31;;;;;;;15.27;2.65;;;20.10;94.60;;;;;;5077740;28;20552;-74
2021/10/31 12:13:59;;;;;;;20.75;2.28;;;20.00;91.40;;;;;;5077764;28;20567;-74
2021/10/31 12:16:27;;;;;;;22.65;3.92;;;19.80;91.30;;;;;;5077748;28;20557;-74
2021/10/31 12:18:56;;;;;;;13.60;3.20;;;19.60;91.30;;;;;;5077605;28;20042;-74
2021/10/31 12:21:25;;;;;;;17.17;2.35;;;19.40;90.10;;;;;;5077833;28;20078;-74
2021/10/31 12:24:03;;;;;;;18.40;2.65;;;19.20;91.40;;;;;;5077699;28;20020;-74
2021/10/31 12:26:38;;;;;;;18.67;3.15;;;18.90;90.40;;;;;;5077324;28;20114;-73
2021/10/31 12:29:21;;;;;;;15.50;3.03;;;18.70;91.90;;;;;;5077661;28;20128;-74
2021/10/31 12:32:02;;;;;;;13.15;2.55;;;18.60;90.50;;;;;;5077448;28;20078;-74
2021/10/31 12:34:39;;;;;;;19.23;3.15;;;18.50;93.50;;;;;;5077584;28;20376;-74
2021/10/31 12:37:27;;;;;;;20.25;3.00;;;18.50;91.70;;;;;;5077672;28;20457;-74
2021/10/31 12:40:06;;;;;;;17.75;3.13;;;18.60;91.00;;;;;;5077052;28;20044;-74
2021/10/31 12:42:35;;;;;;;18.08;2.97;;;18.70;95.00;;;;;;5077379;28;20028;-74
2021/10/31 12:45:05;;;;;;;13.82;2.80;;;18.80;93.10;;;;;;5077407;28;20112;-74
2021/10/31 12:47:39;;;;;;;19.73;3.20;;;18.90;94.80;;;;;;5077220;28;20024;-73
2021/10/31 12:50:20;;;;;;;16.02;3.00;;;19.00;94.70;;;;;;5077403;28;20051;-74
2021/10/31 12:52:58;;;;;;;18.88;3.47;;;19.10;94.80;;;;;;5077349;28;20479;-74
2021/10/31 12:55:24;;;;;;;14.20;2.70;;;19.20;94.90;;;;;;5076938;28;20028;-74